Time;durP1;ratioP1;P1;durP2;ratioP2;P2;SDS_P1;SDS_P2;PMS_P1;PMS_P2;Temp;Humidity;BMP_temperature;BMP_pressure;BME280_temperature;BME280_humidity;BME280_pressure;Samples;Min_cycle;Max_cycle;Signal;HPM_P1;HPM_P2
2023/10/21 00:00:28;;;;;;;26.40;7.20;;;;;;;18.04;73.51;97007.70;105809;1263;96638;-91
2023/10/21 00:03:20;;;;;;;27.80;7.10;;;;;;;18.05;73.48;97014.06;105630;1268;107790;-90
2023/10/21 00:06:07;;;;;;;24.40;7.60;;;;;;;18.07;73.48;97024.16;105757;1263;96685;-90
2023/10/21 00:12:00;;;;;;;22.90;7.00;;;;;;;18.11;73.29;97029.54;105943;1263;108728;-90
2023/10/21 00:14:31;;;;;;;21.00;6.30;;;;;;;18.13;73.19;97026.71;106036;1268;98103;-91
2023/10/21 00:17:02;;;;;;;20.50;6.50;;;;;;;18.15;73.13;97022.31;106126;1266;107293;-90
2023/10/21 00:19:52;;;;;;;32.00;7.50;;;;;;;18.19;73.10;97017.34;106105;1263;97420;-90
2023/10/21 00:22:24;;;;;;;;;;;;;;;18.22;73.16;97019.90;105933;1269;96600;-90
2023/10/21 00:25:18;;;;;;;28.90;7.10;;;;;;;18.22;72.97;97021.84;106295;1262;109621;-90
2023/10/21 00:28:07;;;;;;;23.10;6.80;;;;;;;18.26;72.88;97014.39;106064;1260;96674;-90
2023/10/21 00:30:47;;;;;;;27.40;7.30;;;;;;;18.28;72.93;97017.70;105956;1270;107821;-91
2023/10/21 00:34:12;;;;;;;24.30;6.50;;;;;;;18.28;72.85;97026.69;105889;1264;96628;-91
2023/10/21 00:40:28;;;;;;;27.50;6.60;;;;;;;18.32;72.77;97035.08;106068;1262;111323;-92
2023/10/21 00:43:55;;;;;;;22.20;7.10;;;;;;;18.32;72.60;97039.38;106033;1262;96603;-92
2023/10/21 00:46:46;;;;;;;27.20;7.90;;;;;;;18.31;72.42;97045.05;106268;1263;107724;-92
2023/10/21 00:49:14;;;;;;;24.50;7.40;;;;;;;18.33;72.53;97047.54;106042;1268;96600;-91
2023/10/21 00:52:26;;;;;;;21.60;6.30;;;;;;;18.36;72.41;97050.90;106067;1261;96700;-90
2023/10/21 00:55:20;;;;;;;25.00;5.90;;;;;;;18.40;72.34;97052.98;106001;1263;109759;-90
2023/10/21 00:57:49;;;;;;;24.60;6.70;;;;;;;18.43;72.41;97056.36;106083;1260;96445;-90
2023/10/21 01:00:17;;;;;;;27.60;6.80;;;;;;;18.46;72.36;97062.06;105866;1263;107674;-91
2023/10/21 01:02:48;;;;;;;29.30;6.80;;;;;;;18.48;72.34;97058.21;105792;1267;97598;-91
2023/10/21 01:05:19;;;;;;;29.20;7.00;;;;;;;18.49;72.23;97061.03;105966;1263;96515;-91
2023/10/21 01:07:46;;;;;;;26.00;6.80;;;;;;;18.49;72.21;97066.48;105782;1269;110090;-91
2023/10/21 01:13:57;;;;;;;21.20;6.50;;;;;;;18.48;71.99;97068.23;106041;1265;108215;-91
2023/10/21 01:16:25;;;;;;;20.00;6.00;;;;;;;18.47;71.74;97071.64;105887;1269;96719;-89
2023/10/21 01:18:55;;;;;;;19.80;6.10;;;;;;;18.47;71.87;97067.87;106085;1266;96605;-90
2023/10/21 01:21:26;;;;;;;24.70;6.80;;;;;;;18.47;71.79;97077.67;105921;1268;109403;-91
2023/10/21 01:24:02;;;;;;;19.00;6.10;;;;;;;18.48;71.73;97075.43;105881;1260;96525;-90
2023/10/21 01:26:33;;;;;;;23.70;6.70;;;;;;;18.49;71.69;97077.13;105892;1263;107647;-90
2023/10/21 01:29:23;;;;;;;23.60;5.90;;;;;;;18.49;71.59;97088.15;105952;1268;96773;-91
2023/10/21 01:31:52;;;;;;;23.30;7.20;;;;;;;18.52;71.57;97092.17;105893;1260;96524;-90
2023/10/21 01:34:21;;;;;;;24.80;7.50;;;;;;;18.51;71.59;97090.14;105927;1263;110049;-92
2023/10/21 01:36:50;;;;;;;24.90;6.70;;;;;;;18.51;71.23;97091.00;106012;1267;96602;-91
2023/10/21 01:39:21;;;;;;;23.80;6.90;;;;;;;18.52;71.53;97097.89;106000;1263;107104;-91
2023/10/21 01:42:37;;;;;;;22.80;7.30;;;;;;;18.50;71.14;97101.32;105813;1268;97902;-91
2023/10/21 01:45:28;;;;;;;16.70;6.00;;;;;;;18.50;71.46;97094.52;106010;1262;96600;-91
2023/10/21 01:47:59;;;;;;;23.70;6.60;;;;;;;18.48;71.33;97096.77;105858;1265;111060;-92
2023/10/21 01:53:51;;;;;;;28.10;7.30;;;;;;;18.48;71.01;97101.69;106073;1263;107626;-91
2023/10/21 01:56:39;;;;;;;21.90;6.90;;;;;;;18.49;71.22;97109.73;106064;1262;96566;-91
2023/10/21 01:59:26;;;;;;;20.60;6.00;;;;;;;18.50;71.12;97113.16;105892;1263;96572;-90
2023/10/21 02:02:02;;;;;;;23.10;6.50;;;;;;;18.48;71.09;97117.10;105934;1268;111285;-90
2023/10/21 02:05:00;;;;;;;20.90;6.10;;;;;;;18.45;70.66;97121.86;105994;1264;96601;-91
2023/10/21 02:07:54;;;;;;;27.10;6.70;;;;;;;18.46;70.91;97124.14;106198;1266;107767;-90
2023/10/21 02:10:22;;;;;;;31.00;7.40;;;;;;;18.44;70.80;97121.63;106204;1263;96584;-90
2023/10/21 02:12:55;;;;;;;29.90;7.50;;;;;;;18.44;70.85;97124.60;106309;1263;96539;-89
2023/10/21 02:15:22;;;;;;;23.50;6.80;;;;;;;18.44;70.77;97127.91;106203;1262;110234;-91
2023/10/21 02:18:13;;;;;;;25.20;7.80;;;;;;;18.43;70.84;97125.67;106050;1265;97963;-90
2023/10/21 02:20:47;;;;;;;19.80;6.40;;;;;;;18.41;70.80;97125.01;106074;1263;106343;-90
2023/10/21 02:23:42;;;;;;;24.90;7.00;;;;;;;18.39;70.77;97126.30;106008;1268;96531;-88
2023/10/21 02:26:16;;;;;;;23.10;6.40;;;;;;;18.38;70.62;97128.55;106026;1262;97946;-90
2023/10/21 02:29:03;;;;;;;27.70;7.30;;;;;;;18.38;70.67;97133.47;105845;1268;109860;-90
2023/10/21 02:31:52;;;;;;;20.90;6.00;;;;;;;18.36;70.60;97139.27;105956;1263;96587;-90
2023/10/21 02:35:07;;;;;;;23.40;7.10;;;;;;;18.36;70.65;97133.88;98416;1267;10236686;-91
2023/10/21 02:37:37;;;;;;;27.10;7.00;;;;;;;18.34;70.51;97137.23;106117;1262;96435;-89
2023/10/21 02:40:05;;;;;;;22.00;6.80;;;;;;;18.33;70.60;97141.52;105950;1263;96582;-90
2023/10/21 02:42:37;;;;;;;21.00;6.00;;;;;;;18.32;70.31;97140.56;105866;1262;96531;-90
2023/10/21 02:45:05;;;;;;;23.40;6.80;;;;;;;18.32;70.56;97149.43;105884;1260;107668;-89
2023/10/21 02:47:35;;;;;;;21.60;6.80;;;;;;;18.32;70.27;97152.61;105888;1260;96432;-90
2023/10/21 02:50:14;;;;;;;20.20;6.90;;;;;;;18.30;70.23;97152.16;105848;1267;96606;-91
2023/10/21 02:52:42;;;;;;;25.00;7.30;;;;;;;18.29;70.19;97146.83;105763;1263;109942;-93
2023/10/21 02:55:48;;;;;;;35.80;6.80;;;;;;;18.31;70.16;97152.33;105765;1265;96594;-91
2023/10/21 02:58:16;;;;;;;24.50;6.80;;;;;;;18.30;70.15;97151.16;105709;1266;107788;-91
2023/10/21 03:00:44;;;;;;;25.80;6.90;;;;;;;18.30;70.16;97151.41;105681;1268;96604;-90
2023/10/21 03:03:11;;;;;;;18.70;6.30;;;;;;;18.29;70.08;97155.80;105724;1263;96592;-92
2023/10/21 03:05:42;;;;;;;22.30;7.40;;;;;;;18.27;70.08;97151.25;105901;1261;111334;-91
2023/10/21 03:08:10;;;;;;;23.20;7.60;;;;;;;18.25;70.12;97150.42;105746;1260;96525;-91
2023/10/21 03:10:37;;;;;;;23.30;6.50;;;;;;;18.23;70.04;97151.45;105674;1263;107792;-91
2023/10/21 03:13:10;;;;;;;22.30;7.30;;;;;;;18.21;70.01;97152.98;105640;1262;96587;-90
2023/10/21 03:15:37;;;;;;;24.00;7.80;;;;;;;18.20;69.93;97150.91;105703;1263;96758;-91
2023/10/21 03:18:06;;;;;;;23.10;7.20;;;;;;;18.19;69.87;97144.34;105870;1261;111033;-90
2023/10/21 03:20:36;;;;;;;28.10;7.10;;;;;;;18.18;69.92;97147.35;105843;1268;96659;-91
2023/10/21 03:23:03;;;;;;;21.50;6.50;;;;;;;18.16;69.99;97156.22;105650;1263;96610;-91
2023/10/21 03:25:35;;;;;;;27.50;6.90;;;;;;;18.14;69.81;97165.98;105772;1268;97950;-90
2023/10/21 03:28:03;;;;;;;24.40;6.90;;;;;;;18.11;69.92;97160.28;105720;1268;96623;-90
2023/10/21 03:30:31;;;;;;;19.40;6.30;;;;;;;18.08;69.67;97163.50;105725;1263;96528;-90
2023/10/21 03:33:02;;;;;;;22.30;7.00;;;;;;;18.07;69.80;97165.41;105701;1263;96599;-93
2023/10/21 03:39:32;;;;;;;22.90;6.60;;;;;;;18.04;69.68;97188.38;106080;1265;96598;-91
2023/10/21 03:42:17;;;;;;;19.60;6.50;;;;;;;18.04;69.73;97194.50;106064;1265;97947;-90
2023/10/21 03:44:48;;;;;;;20.70;6.80;;;;;;;18.03;69.62;97199.68;106269;1260;109886;-91
2023/10/21 03:47:17;;;;;;;24.70;7.50;;;;;;;18.02;69.58;97192.87;106337;1267;96706;-91
2023/10/21 03:49:50;;;;;;;24.80;6.80;;;;;;;18.01;69.57;97188.79;105804;1268;106293;-90
2023/10/21 03:52:32;;;;;;;23.00;6.90;;;;;;;18.02;69.58;97195.00;105910;1263;96590;-89
2023/10/21 03:54:59;;;;;;;27.40;7.20;;;;;;;18.02;69.47;97196.98;105732;1263;96549;-91
2023/10/21 03:57:27;;;;;;;21.60;7.40;;;;;;;18.04;69.49;97199.92;105853;1263;96591;-91
2023/10/21 03:59:55;;;;;;;19.50;6.70;;;;;;;18.07;69.57;97209.73;105669;1263;96619;-90
2023/10/21 04:02:27;;;;;;;20.50;6.10;;;;;;;18.08;69.39;97210.65;105876;1268;108918;-91
2023/10/21 04:04:56;;;;;;;18.80;6.20;;;;;;;18.09;69.54;97216.89;105716;1261;96767;-91
2023/10/21 04:07:23;;;;;;;21.30;6.20;;;;;;;18.08;69.36;97217.11;105858;1263;96618;-92
2023/10/21 04:09:50;;;;;;;18.70;6.30;;;;;;;18.08;69.45;97213.13;105710;1273;96632;-90
2023/10/21 04:12:18;;;;;;;20.70;6.30;;;;;;;18.06;69.35;97211.44;105814;1269;96795;-91
2023/10/21 04:14:46;;;;;;;20.00;6.30;;;;;;;18.05;69.33;97210.73;105836;1267;96666;-91
2023/10/21 04:17:18;;;;;;;17.90;6.60;;;;;;;18.03;69.37;97213.33;105791;1263;96767;-91
2023/10/21 04:19:45;;;;;;;22.80;6.20;;;;;;;18.01;69.29;97211.96;105789;1263;96417;-92
2023/10/21 04:22:15;;;;;;;20.50;6.50;;;;;;;17.99;69.26;97211.08;106278;1261;96700;-92
2023/10/21 04:24:45;;;;;;;22.60;6.80;;;;;;;17.97;69.37;97210.64;106158;1264;95496;-89
2023/10/21 04:27:13;;;;;;;21.40;7.40;;;;;;;17.97;69.21;97216.89;105940;1264;106304;-90
2023/10/21 04:29:40;;;;;;;26.00;7.40;;;;;;;18.00;69.21;97220.73;105711;1262;97269;-90
2023/10/21 04:32:32;;;;;;;;;;;;;;;;;;;;;
2023/10/21 04:37:29;;;;;;;;;;;;;;;;;;;;;
2023/10/21 04:40:35;;;;;;;21.50;6.90;;;;;;;18.00;69.15;97228.09;104983;1273;94319;-80
2023/10/21 04:44:08;;;;;;;;;;;;;;;;;;;;;
2023/10/21 04:46:58;;;;;;;;;;;;;;;;;;;;;
2023/10/21 04:50:30;;;;;;;;;;;;;;;;;;;;;
2023/10/21 04:53:10;;;;;;;21.90;6.30;;;;;;;17.99;68.87;97250.20;105782;1263;107997;-81
2023/10/21 04:56:11;;;;;;;18.60;5.40;;;;;;;17.96;68.95;97244.32;105461;1264;94310;-79
2023/10/21 04:58:47;;;;;;;17.40;5.70;;;;;;;17.94;68.97;97249.36;106212;1265;94158;-80
2023/10/21 05:01:48;;;;;;;;;;;;;;;;;;;;;
2023/10/21 05:04:56;;;;;;;20.70;5.60;;;;;;;17.91;68.97;97259.30;106167;1273;94241;-79
2023/10/21 05:07:36;;;;;;;19.60;5.70;;;;;;;17.91;68.81;97264.55;107594;1265;107588;-79
2023/10/21 05:10:22;;;;;;;;;;;;;;;;;;;;;
2023/10/21 05:14:10;;;;;;;22.60;5.70;;;;;;;17.94;68.83;97264.73;102214;1292;650244;-80
2023/10/21 05:17:13;;;;;;;16.60;5.50;;;;;;;17.91;68.80;97267.79;104656;1271;94318;-80
2023/10/21 05:20:05;;;;;;;20.70;6.00;;;;;;;17.90;68.72;97265.24;104414;1271;96268;-80
2023/10/21 05:22:40;;;;;;;18.00;5.30;;;;;;;17.90;68.83;97269.35;106209;1263;108522;-78
2023/10/21 05:26:04;;;;;;;;;;;;;;;;;;;;;
2023/10/21 05:28:59;;;;;;;19.00;5.80;;;;;;;17.90;68.76;97263.80;105464;1273;108163;-81
2023/10/21 05:31:53;;;;;;;19.20;6.40;;;;;;;17.90;68.65;97253.92;105995;1263;94518;-81
2023/10/21 05:34:42;;;;;;;23.70;6.90;;;;;;;17.92;68.69;97269.14;105888;1268;94413;-81
2023/10/21 05:37:28;;;;;;;18.40;5.80;;;;;;;17.92;68.65;97284.54;108063;1259;108214;-79
2023/10/21 05:40:02;;;;;;;29.10;6.60;;;;;;;17.92;68.63;97316.89;108053;1259;98051;-79
2023/10/21 05:42:58;;;;;;;20.90;6.00;;;;;;;17.92;68.64;97316.53;108416;1252;107859;-78
2023/10/21 05:45:46;;;;;;;26.70;6.60;;;;;;;17.94;68.54;97314.73;108418;1253;92952;-79
2023/10/21 05:49:23;;;;;;;;;;;;;;;;;;;;;
2023/10/21 06:27:26;;;;;;;19.10;5.50;;;;;;;18.49;68.11;97383.59;107872;1248;94290;-82
2023/10/21 06:30:18;;;;;;;22.90;7.20;;;;;;;18.45;68.08;97389.52;108847;1244;107057;-82
2023/10/21 06:33:58;;;;;;;;;;;;;;;;;;;;;
2023/10/21 06:37:15;;;;;;;;;;;;;;;;;;;;;
2023/10/21 06:40:45;;;;;;;;;;;;;;;;;;;;;
2023/10/21 06:43:47;;;;;;;22.40;6.10;;;;;;;18.42;68.02;97426.02;108478;1251;95831;-82
2023/10/21 06:46:43;;;;;;;21.60;6.00;;;;;;;18.42;68.00;97434.36;109175;1240;107444;-84
2023/10/21 06:49:48;;;;;;;;;;;;;;;;;;;;;
2023/10/21 06:52:53;;;;;;;18.80;5.50;;;;;;;18.48;68.02;97436.36;108634;1250;95216;-83
2023/10/21 06:59:40;;;;;;;24.00;5.20;;;;;;;18.58;67.96;97452.34;108561;1237;96895;-82
2023/10/21 07:03:01;;;;;;;17.20;5.20;;;;;;;18.63;68.00;97452.34;108531;1238;106923;-84
2023/10/21 07:06:03;;;;;;;;;;;;;;;;;;;;;
2023/10/21 07:08:46;;;;;;;19.40;4.90;;;;;;;18.74;67.85;97456.94;107970;1244;95451;-82
2023/10/21 07:11:41;;;;;;;21.50;6.10;;;;;;;18.81;67.94;97467.67;108631;1241;108278;-82
2023/10/21 07:14:36;;;;;;;23.10;5.80;;;;;;;18.86;67.89;97474.06;108915;1239;95394;-80
2023/10/21 07:17:24;;;;;;;;;;;;;;;;;;;;;
2023/10/21 07:20:05;;;;;;;18.50;5.20;;;;;;;18.94;67.93;97475.79;109278;1232;95220;-81
2023/10/21 07:23:06;;;;;;;17.50;5.30;;;;;;;18.94;67.61;97482.34;108792;1237;96032;-81
2023/10/21 07:25:43;;;;;;;17.90;5.10;;;;;;;18.94;67.65;97483.83;109088;1242;108931;-80
2023/10/21 07:28:40;;;;;;;19.80;5.50;;;;;;;18.93;67.52;97485.58;109589;1235;95296;-82
2023/10/21 07:31:41;;;;;;;19.90;5.50;;;;;;;18.93;67.62;97492.08;108447;1241;111514;-83
2023/10/21 07:34:22;;;;;;;20.20;5.50;;;;;;;18.91;67.71;97498.38;108534;1232;95227;-82
2023/10/21 07:37:08;;;;;;;;;;;;;;;;;;;;;
2023/10/21 07:40:32;;;;;;;22.00;5.70;;;;;;;18.89;67.59;97504.50;108196;1241;109758;-82
2023/10/21 07:43:13;;;;;;;17.70;5.40;;;;;;;18.87;67.55;97499.23;108065;1241;95742;-83
2023/10/21 07:46:27;;;;;;;19.00;5.30;;;;;;;18.84;67.49;97497.07;109113;1239;109244;-82
2023/10/21 07:49:26;;;;;;;;;;;;;;;;;;;;;
2023/10/21 07:52:59;;;;;;;;;;;;;;;;;;;;;
2023/10/21 07:56:10;;;;;;;20.40;6.00;;;;;;;18.87;67.16;97494.80;108201;1244;108550;-81
2023/10/21 07:58:42;;;;;;;26.70;6.60;;;;;;;18.90;67.14;97497.63;109038;1241;95631;-80
2023/10/21 08:01:34;;;;;;;25.20;8.40;;;;;;;18.92;67.29;97498.21;108418;1247;107190;-83
2023/10/21 08:04:35;;;;;;;;;;;;;;;;;;;;;
2023/10/21 08:07:22;;;;;;;30.90;11.00;;;;;;;18.99;67.31;97500.03;109095;1243;95318;-82
2023/10/21 08:10:15;;;;;;;34.30;11.50;;;;;;;19.03;67.30;97502.95;108726;1244;108478;-83
2023/10/21 08:13:25;;;;;;;34.30;13.00;;;;;;;19.07;67.10;97502.04;108999;1233;96719;-82
2023/10/21 08:15:53;;;;;;;38.10;14.60;;;;;;;19.12;67.30;97505.40;108752;1235;107514;-82
2023/10/21 08:18:58;;;;;;;;;;;;;;;;;;;;;
2023/10/21 08:22:21;;;;;;;;;;;;;;;;;;;;;
2023/10/21 08:25:04;;;;;;;28.50;10.40;;;;;;;19.28;67.30;97519.16;109046;1233;108348;-82
2023/10/21 08:28:07;;;;;;;25.10;9.30;;;;;;;19.36;67.26;97529.27;108853;1232;97536;-82
2023/10/21 08:30:46;;;;;;;28.10;8.90;;;;;;;19.42;67.30;97531.15;108726;1236;106978;-83
2023/10/21 08:33:47;;;;;;;28.00;9.20;;;;;;;19.49;67.28;97535.59;109025;1235;95326;-82
2023/10/21 08:37:07;;;;;;;;;;;;;;;;;;;;;
2023/10/21 08:40:15;;;;;;;25.10;7.40;;;;;;;19.61;67.24;97536.66;108999;1235;108539;-82
2023/10/21 08:43:15;;;;;;;;;;;;;;;;;;;;;
2023/10/21 08:46:15;;;;;;;;;;;;;;;;;;;;;
2023/10/21 08:49:23;;;;;;;20.50;5.50;;;;;;;19.84;67.18;97532.17;108586;1235;95655;-80
2023/10/21 08:52:23;;;;;;;;;;;;;;;;;;;;;
2023/10/21 08:55:25;;;;;;;21.70;6.00;;;;;;;19.94;66.92;97562.54;108462;1244;108420;-79
2023/10/21 08:58:53;;;;;;;;;;;;;;;;;;;;;
2023/10/21 09:02:02;;;;;;;;;;;;;;;;;;;;;
2023/10/21 09:08:51;;;;;;;22.50;5.30;;;;;;;19.91;66.71;97601.98;108202;1240;96186;-89
2023/10/21 09:20:39;;;;;;;;;;;;;;;;;;;;;
2023/10/21 09:23:48;;;;;;;18.40;4.80;;;;;;;19.87;66.62;97615.98;108013;1241;96237;-81
2023/10/21 09:26:17;;;;;;;19.10;5.30;;;;;;;19.91;66.47;97616.01;108197;1242;95456;-81
2023/10/21 09:29:21;;;;;;;;;;;;;;;;;;;;;
2023/10/21 09:31:59;;;;;;;19.80;4.90;;;;;;;20.01;66.60;97606.29;108022;1244;96134;-84
2023/10/21 09:39:00;;;;;;;17.00;5.10;;;;;;;20.13;66.40;97607.20;108876;1234;95335;-82
2023/10/21 09:42:05;;;;;;;;;;;;;;;;;;;;;
2023/10/21 09:54:00;;;;;;;20.70;5.20;;;;;;;20.33;66.29;97594.84;107744;1247;106959;-82
2023/10/21 09:56:48;;;;;;;21.60;4.70;;;;;;;20.42;66.37;97594.64;107867;1236;96074;-82
2023/10/21 10:14:16;;;;;;;18.00;4.80;;;;;;;20.96;65.68;97614.36;104251;1285;649532;-91
2023/10/21 10:16:45;;;;;;;17.00;4.80;;;;;;;21.03;65.52;97626.48;105318;1275;660818;-89
2023/10/21 10:19:16;;;;;;;18.80;4.90;;;;;;;21.02;65.59;97632.77;106291;1258;94248;-89
2023/10/21 10:21:51;;;;;;;20.30;6.10;;;;;;;21.01;65.38;97631.39;106336;1263;106892;-90
2023/10/21 10:24:22;;;;;;;21.70;5.40;;;;;;;20.97;65.18;97637.27;106323;1263;94294;-90
2023/10/21 10:26:53;;;;;;;20.70;5.70;;;;;;;20.94;65.08;97639.38;106287;1257;107657;-91
2023/10/21 10:29:26;;;;;;;19.10;5.60;;;;;;;20.91;65.31;97648.73;106428;1257;94251;-90
2023/10/21 10:32:16;;;;;;;19.30;5.80;;;;;;;20.89;65.22;97644.09;106689;1257;94379;-92
2023/10/21 10:35:00;;;;;;;17.00;4.70;;;;;;;20.83;65.20;97642.59;106329;1263;106744;-93
2023/10/21 10:37:35;;;;;;;21.70;6.00;;;;;;;20.80;64.86;97676.39;106269;1257;95503;-91
2023/10/21 10:40:30;;;;;;;20.50;5.30;;;;;;;20.79;64.67;97675.86;106120;1257;106189;-92
2023/10/21 10:42:59;;;;;;;20.10;5.50;;;;;;;20.80;64.97;97678.23;106294;1257;95398;-90
2023/10/21 10:45:28;;;;;;;17.60;5.30;;;;;;;20.81;64.86;97684.00;106705;1254;95391;-90
2023/10/21 10:48:04;;;;;;;17.70;4.50;;;;;;;20.84;64.34;97686.33;106846;1256;108574;-94
2023/10/21 10:58:20;;;;;;;15.80;4.70;;;;;;;20.83;64.76;97694.52;103119;1285;637019;-90
2023/10/21 11:00:59;;;;;;;15.10;4.50;;;;;;;20.82;64.72;97695.98;105671;1271;94281;-87
2023/10/21 11:06:35;;;;;;;17.30;4.70;;;;;;;20.91;64.70;97706.98;105751;1260;107213;-88
2023/10/21 11:09:09;;;;;;;17.00;4.50;;;;;;;20.96;64.69;97713.63;105955;1261;95387;-85
2023/10/21 11:11:51;;;;;;;19.70;5.20;;;;;;;21.00;64.69;97717.59;106450;1254;229643;-87
2023/10/21 11:14:36;;;;;;;14.30;4.90;;;;;;;21.06;64.46;97722.11;106408;1256;94194;-85
2023/10/21 11:17:05;;;;;;;16.50;4.40;;;;;;;21.06;64.48;97722.52;106233;1254;94781;-87
2023/10/21 11:19:39;;;;;;;19.80;4.30;;;;;;;21.07;64.28;97727.59;106159;1256;106710;-85
2023/10/21 11:22:20;;;;;;;14.80;4.40;;;;;;;21.08;64.36;97739.66;106056;1254;95572;-87
2023/10/21 11:24:56;;;;;;;19.50;4.80;;;;;;;21.08;64.39;97747.68;106154;1252;107815;-85
2023/10/21 11:27:32;;;;;;;19.20;4.70;;;;;;;21.13;64.27;97744.14;106322;1252;95230;-87
2023/10/21 11:30:07;;;;;;;13.10;4.00;;;;;;;21.17;64.26;97747.29;106553;1254;95719;-85
2023/10/21 11:32:38;;;;;;;18.40;4.60;;;;;;;21.19;64.05;97750.64;106312;1256;108977;-85
2023/10/21 11:35:13;;;;;;;16.50;4.00;;;;;;;21.21;64.04;97753.63;105750;1256;95229;-87
2023/10/21 11:37:50;;;;;;;12.50;4.10;;;;;;;21.24;63.87;97759.99;105945;1270;107644;-88
2023/10/21 11:40:21;;;;;;;19.40;5.30;;;;;;;21.22;63.80;97754.75;105873;1256;95173;-87
2023/10/21 11:43:20;;;;;;;13.00;4.10;;;;;;;21.22;63.90;97754.83;105882;1257;95233;-88
2023/10/21 11:45:54;;;;;;;21.30;3.90;;;;;;;21.18;63.87;97758.60;105723;1256;108546;-86
2023/10/21 11:48:41;;;;;;;12.60;3.60;;;;;;;21.19;63.70;97765.59;103117;1287;636004;-88
2023/10/21 11:51:13;;;;;;;15.00;4.40;;;;;;;21.13;63.67;97768.64;105298;1263;94291;-83
2023/10/21 11:53:46;;;;;;;18.70;4.60;;;;;;;21.10;64.02;97777.48;105388;1259;94621;-88
2023/10/21 12:00:31;;;;;;;15.20;4.10;;;;;;;21.04;63.78;97782.75;105082;1276;95221;-87
2023/10/21 12:13:42;;;;;;;15.90;4.10;;;;;;;21.01;63.93;97771.06;105629;1254;95183;-81
2023/10/21 12:17:06;;;;;;;16.30;3.80;;;;;;;21.03;63.65;97778.14;105639;1253;106850;-88
2023/10/21 12:36:38;;;;;;;12.30;4.30;;;;;;;20.86;63.38;97824.27;105547;1251;95449;-88
2023/10/21 12:41:54;;;;;;;14.80;4.10;;;;;;;20.79;63.51;97832.49;105799;1253;95243;-87
2023/10/21 12:44:23;;;;;;;10.70;3.90;;;;;;;20.77;63.63;97825.98;105614;1253;108314;-86
2023/10/21 12:46:55;;;;;;;14.10;3.50;;;;;;;20.73;63.68;97824.98;105425;1259;95289;-87
2023/10/21 12:49:30;;;;;;;11.80;3.90;;;;;;;20.70;63.71;97824.16;105865;1253;95191;-84
2023/10/21 12:52:05;;;;;;;14.30;3.90;;;;;;;20.67;63.39;97818.09;105856;1258;108636;-86
2023/10/21 12:54:36;;;;;;;13.80;3.70;;;;;;;20.63;63.59;97825.85;105670;1258;95518;-85
2023/10/21 12:57:08;;;;;;;15.90;4.40;;;;;;;20.58;63.44;97826.73;105777;1260;107115;-88
2023/10/21 12:59:36;;;;;;;19.40;4.30;;;;;;;20.56;63.53;97832.72;105820;1251;95258;-86
2023/10/21 13:02:10;;;;;;;16.30;4.10;;;;;;;20.54;63.54;97832.46;105588;1253;96258;-88
2023/10/21 13:04:40;;;;;;;15.40;4.10;;;;;;;20.53;63.53;97833.27;105763;1256;108497;-88
2023/10/21 13:07:12;;;;;;;11.30;3.50;;;;;;;20.53;63.54;97834.88;105718;1259;95400;-87
2023/10/21 13:09:51;;;;;;;10.10;3.70;;;;;;;20.54;63.64;97838.17;105697;1253;107599;-88
2023/10/21 13:12:19;;;;;;;13.00;3.90;;;;;;;20.56;63.44;97844.10;105550;1253;96094;-88
2023/10/21 13:14:54;;;;;;;;;;;;;;;20.57;63.61;97847.30;105576;1258;95299;-86
2023/10/21 13:17:27;;;;;;;11.70;3.50;;;;;;;20.57;63.70;97851.80;106027;1256;108633;-88
2023/10/21 13:19:55;;;;;;;12.40;3.80;;;;;;;20.59;63.60;97851.13;105971;1257;95485;-86
2023/10/21 13:22:23;;;;;;;14.30;3.60;;;;;;;20.61;63.56;97862.71;105993;1268;107562;-81
2023/10/21 13:24:56;;;;;;;10.90;3.50;;;;;;;20.62;63.60;97869.77;105787;1254;95383;-84
2023/10/21 13:27:47;;;;;;;11.20;3.20;;;;;;;20.63;63.47;97879.89;105774;1253;96106;-86
2023/10/21 13:30:16;;;;;;;9.50;3.70;;;;;;;20.61;63.54;97884.23;105768;1254;109193;-85
2023/10/21 13:32:51;;;;;;;14.30;3.50;;;;;;;20.59;63.58;97883.79;105880;1264;95285;-85
2023/10/21 13:35:21;;;;;;;15.10;4.40;;;;;;;20.56;63.58;97882.63;105733;1257;108373;-84
2023/10/21 13:37:55;;;;;;;14.50;4.10;;;;;;;20.53;63.42;97887.32;105751;1259;95284;-81
2023/10/21 13:40:26;;;;;;;15.70;3.90;;;;;;;20.50;63.53;97894.29;105728;1257;95252;-81
2023/10/21 13:42:57;;;;;;;13.00;3.80;;;;;;;20.49;63.63;97900.44;105696;1258;108034;-82
2023/10/21 13:45:26;;;;;;;12.30;4.20;;;;;;;20.48;63.48;97907.41;105948;1253;95502;-83
2023/10/21 13:47:56;;;;;;;14.80;4.00;;;;;;;20.46;63.45;97906.62;106061;1253;108178;-83
2023/10/21 13:50:27;;;;;;;14.50;3.70;;;;;;;20.43;63.43;97908.64;105776;1264;95204;-84
2023/10/21 13:53:11;;;;;;;11.20;3.80;;;;;;;20.39;63.52;97914.91;105586;1259;95189;-84
2023/10/21 13:55:42;;;;;;;14.20;4.20;;;;;;;20.34;63.32;97921.60;105615;1267;108315;-83
2023/10/21 13:58:13;;;;;;;19.20;5.80;;;;;;;20.30;63.47;97925.77;105860;1259;97136;-83
2023/10/21 14:00:42;;;;;;;21.50;5.50;;;;;;;20.26;63.59;97926.84;105885;1260;107729;-82
2023/10/21 14:03:19;;;;;;;13.70;4.60;;;;;;;20.20;63.45;97931.17;105475;1260;95339;-83
2023/10/21 14:05:50;;;;;;;15.50;5.40;;;;;;;20.14;63.50;97931.29;105609;1260;95247;-84
2023/10/21 14:08:21;;;;;;;15.90;5.70;;;;;;;20.09;63.59;97933.00;105813;1254;108267;-84
2023/10/21 14:10:54;;;;;;;12.40;4.20;;;;;;;20.04;63.62;97934.55;105639;1255;95625;-83
2023/10/21 14:13:30;;;;;;;17.30;4.40;;;;;;;19.99;63.53;97936.07;105830;1259;107577;-81
2023/10/21 14:15:59;;;;;;;15.20;4.50;;;;;;;19.96;63.63;97934.72;105560;1257;95318;-84
2023/10/21 14:18:29;;;;;;;13.80;4.80;;;;;;;19.92;63.57;97931.85;105949;1258;95213;-83
2023/10/21 14:21:07;;;;;;;11.40;3.80;;;;;;;19.87;63.77;97936.53;105894;1266;108804;-84
2023/10/21 14:23:42;;;;;;;15.10;4.60;;;;;;;19.83;63.68;97941.60;105623;1257;95531;-85
2023/10/21 14:26:12;;;;;;;10.80;4.20;;;;;;;19.78;63.59;97949.13;105370;1260;107508;-83
2023/10/21 14:28:49;;;;;;;13.90;4.70;;;;;;;19.74;63.63;97950.98;105714;1260;95358;-83
2023/10/21 14:31:28;;;;;;;16.90;5.20;;;;;;;19.70;63.58;97948.21;105845;1254;95349;-84
2023/10/21 14:33:57;;;;;;;15.00;5.10;;;;;;;19.67;63.69;97941.85;105502;1260;108161;-83
2023/10/21 14:36:26;;;;;;;14.00;5.10;;;;;;;19.62;63.50;97939.33;105701;1274;95535;-85
2023/10/21 14:38:57;;;;;;;19.60;6.50;;;;;;;19.58;63.66;97938.80;105684;1259;108190;-84
2023/10/21 14:41:27;;;;;;;26.00;9.20;;;;;;;19.53;63.65;97935.83;105800;1253;96177;-84
2023/10/21 14:43:55;;;;;;;27.80;9.40;;;;;;;19.49;63.78;97935.80;105688;1259;95256;-84
2023/10/21 14:46:23;;;;;;;27.00;9.70;;;;;;;19.44;63.71;97938.38;105522;1260;108125;-80
2023/10/21 14:48:59;;;;;;;21.70;7.70;;;;;;;19.40;63.74;97944.11;105703;1259;95517;-80
2023/10/21 14:51:27;;;;;;;27.00;8.60;;;;;;;19.38;63.77;97951.84;105860;1254;107123;-83
2023/10/21 14:54:00;;;;;;;49.70;28.70;;;;;;;19.34;63.79;97953.48;105595;1259;95251;-82
2023/10/21 14:56:29;;;;;;;156.20;94.80;;;;;;;19.32;63.78;97954.67;105592;1258;95939;-83
2023/10/21 14:58:57;;;;;;;121.60;86.20;;;;;;;19.29;63.92;97954.65;105868;1257;109223;-84
2023/10/21 15:01:29;;;;;;;124.70;80.50;;;;;;;19.26;63.86;97956.99;105572;1257;96207;-82
2023/10/21 15:03:58;;;;;;;140.60;79.10;;;;;;;19.23;63.91;97957.99;105504;1257;108393;-84
2023/10/21 15:06:29;;;;;;;95.20;48.90;;;;;;;19.19;63.83;97960.66;105893;1260;95686;-82
2023/10/21 15:09:01;;;;;;;62.60;30.60;;;;;;;19.16;63.82;97967.52;105771;1256;96048;-84
2023/10/21 15:11:29;;;;;;;195.00;104.20;;;;;;;19.12;63.93;97971.72;105695;1260;108251;-84
2023/10/21 15:13:57;;;;;;;93.70;51.10;;;;;;;19.07;63.89;97971.98;105784;1254;95414;-81
2023/10/21 15:16:28;;;;;;;143.20;82.90;;;;;;;19.03;64.00;97974.54;105704;1254;107251;-84
2023/10/21 15:19:00;;;;;;;81.50;42.80;;;;;;;18.97;64.01;97972.55;105640;1259;95243;-84
2023/10/21 15:21:28;;;;;;;56.90;27.40;;;;;;;18.92;64.02;97975.61;105621;1258;96515;-84
2023/10/21 15:24:03;;;;;;;66.80;28.90;;;;;;;18.87;64.03;97984.02;105544;1258;106812;-84
2023/10/21 15:26:32;;;;;;;60.10;32.40;;;;;;;18.81;64.06;97984.77;105597;1261;95233;-81
2023/10/21 15:29:03;;;;;;;49.80;30.70;;;;;;;18.74;64.07;97986.85;105589;1267;107994;-84
2023/10/21 15:31:33;;;;;;;31.30;16.10;;;;;;;18.69;64.10;97995.59;105643;1263;95250;-83